Terminal Aerodrome Forecast
Issued by NWS

Home | Current Version | Previous Version | Text Only | Print | Product List | Glossary On
Versions: 1 2 3 4 5 6 7 8 9 10 11 12 13 14 15 16 17 18 19 20 21 22 23 24
566
FTUS41 KBUF 202105 AAA
TAFIAG
TAF AMD
KIAG 202105Z 2021/2118 23020G30KT P6SM BKN200
     FM202300 22014G22KT P6SM BKN100
     FM210800 20017G25KT P6SM FEW250 WS020/22045KT
     FM211300 20019G32KT P6SM FEW200=

USA.gov is the U.S. government's official web portal to all federal, state and local government web resources and services.